createdAt,value
2019-02-07T00:01:05.379Z,-6.141968
2019-02-07T00:02:14.907Z,-6.131897
2019-02-07T00:03:24.413Z,-6.081543
2019-02-07T00:04:33.938Z,-6.071472
2019-02-07T00:05:43.483Z,-6.031189
2019-02-07T00:06:54.599Z,-6.031189
2019-02-07T00:08:02.555Z,-6.031189
2019-02-07T00:09:12.115Z,-6.021118
2019-02-07T00:10:21.664Z,-6.000977
2019-02-07T00:11:31.191Z,-6.000977
2019-02-07T00:12:40.759Z,-6.000977
2019-02-07T00:13:50.319Z,-6.000977
2019-02-07T00:14:59.833Z,-5.990906
2019-02-07T00:16:09.348Z,-6.000977
2019-02-07T00:17:18.898Z,-5.970764
2019-02-07T00:18:28.462Z,-6.021118
2019-02-07T00:19:38.012Z,-6.101685
2019-02-07T00:20:47.581Z,-6.111755
2019-02-07T00:21:57.075Z,-6.111755
2019-02-07T00:23:06.647Z,-6.111755
2019-02-07T00:24:16.199Z,-6.141968
2019-02-07T00:25:25.724Z,-6.141968
2019-02-07T00:26:35.255Z,-6.141968
2019-02-07T00:27:44.869Z,-6.131897
2019-02-07T00:28:54.415Z,-6.152039
2019-02-07T00:30:03.955Z,-6.17218
2019-02-07T00:31:13.486Z,-6.17218
2019-02-07T00:32:23.035Z,-6.17218
2019-02-07T00:33:32.581Z,-6.152039
2019-02-07T00:34:42.094Z,-6.111755
2019-02-07T00:35:51.664Z,-6.081543
2019-02-07T00:37:01.184Z,-6.051331
2019-02-07T00:38:10.707Z,-6.031189
2019-02-07T00:39:20.320Z,-6.000977
2019-02-07T00:40:29.805Z,-5.990906
2019-02-07T00:41:39.412Z,-5.960693
2019-02-07T00:42:48.936Z,-5.950623
2019-02-07T00:43:58.507Z,-5.930481
2019-02-07T00:45:08.027Z,-5.990906
2019-02-07T00:46:17.551Z,-5.990906
2019-02-07T00:47:27.076Z,-5.970764
2019-02-07T00:48:36.613Z,-6.000977
2019-02-07T00:49:46.184Z,-6.031189
2019-02-07T00:50:55.737Z,-6.031189
2019-02-07T00:52:05.309Z,-6.031189
2019-02-07T00:53:14.769Z,-6.081543
2019-02-07T00:54:24.328Z,-6.101685
2019-02-07T00:55:33.846Z,-6.141968
2019-02-07T00:56:43.405Z,-6.101685
2019-02-07T00:57:52.939Z,-6.101685
2019-02-07T00:59:02.470Z,-6.051331
2019-02-07T01:00:12.024Z,-6.031189
2019-02-07T01:01:21.541Z,-6.021118
2019-02-07T01:02:31.069Z,-6.000977
2019-02-07T01:03:41.634Z,-6.000977
2019-02-07T01:04:51.179Z,-5.950623
2019-02-07T01:06:00.719Z,-5.930481
2019-02-07T01:07:10.251Z,-5.890198
2019-02-07T01:08:19.784Z,-5.890198
2019-02-07T01:09:29.345Z,-5.849915
2019-02-07T01:10:38.837Z,-5.839844
2019-02-07T01:11:48.361Z,-5.809631
2019-02-07T01:12:57.885Z,-5.779419
2019-02-07T01:14:07.449Z,-5.759277
2019-02-07T01:15:16.994Z,-5.718994
2019-02-07T01:16:26.512Z,-5.708923
2019-02-07T01:17:36.028Z,-5.66864
2019-02-07T01:18:45.551Z,-5.658569
2019-02-07T01:19:55.090Z,-5.658569
2019-02-07T01:21:04.663Z,-5.658569
2019-02-07T01:22:14.184Z,-5.638428
2019-02-07T01:23:23.746Z,-5.628357
2019-02-07T01:24:33.285Z,-5.608215
2019-02-07T01:25:42.832Z,-5.598145
2019-02-07T01:26:52.422Z,-5.567932
2019-02-07T01:28:01.943Z,-5.557861
2019-02-07T01:29:11.541Z,-5.557861
2019-02-07T01:30:21.132Z,-5.507507
2019-02-07T01:31:30.708Z,-5.487366
2019-02-07T01:32:40.180Z,-5.457153
2019-02-07T01:33:49.703Z,-5.467224
2019-02-07T01:34:59.284Z,-5.457153
2019-02-07T01:36:08.835Z,-5.457153
2019-02-07T01:37:18.395Z,-5.457153
2019-02-07T01:38:27.978Z,-5.447083
2019-02-07T01:39:37.561Z,-5.41687
2019-02-07T01:40:47.077Z,-5.396729
2019-02-07T01:41:56.629Z,-5.386658
2019-02-07T01:43:06.148Z,-5.356445
2019-02-07T01:44:15.689Z,-5.326233
2019-02-07T01:45:25.288Z,-5.306091
2019-02-07T01:46:34.880Z,-5.306091
2019-02-07T01:47:44.379Z,-5.306091
2019-02-07T01:48:54.105Z,-5.326233
2019-02-07T01:50:03.647Z,-5.306091
2019-02-07T01:51:13.174Z,-5.306091
2019-02-07T01:52:22.727Z,-5.28595
2019-02-07T01:53:32.243Z,-5.28595
2019-02-07T01:54:41.834Z,-5.28595
2019-02-07T01:55:51.408Z,-5.275879
2019-02-07T01:57:00.903Z,-5.28595
2019-02-07T01:58:10.455Z,-5.275879
2019-02-07T01:59:19.990Z,-5.28595
2019-02-07T02:00:29.555Z,-5.28595
2019-02-07T02:01:39.124Z,-5.28595
2019-02-07T02:02:49.613Z,-5.275879
2019-02-07T02:03:59.149Z,-5.28595
2019-02-07T02:05:08.701Z,-5.306091
2019-02-07T02:06:18.271Z,-5.28595
2019-02-07T02:07:27.792Z,-5.306091
2019-02-07T02:08:37.379Z,-5.306091
2019-02-07T02:09:46.942Z,-5.346375
2019-02-07T02:10:56.468Z,-5.346375
2019-02-07T02:12:06.018Z,-5.356445
2019-02-07T02:13:15.609Z,-5.326233
2019-02-07T02:14:25.230Z,-5.326233
2019-02-07T02:15:34.698Z,-5.346375
2019-02-07T02:16:44.229Z,-5.326233
2019-02-07T02:17:53.770Z,-5.306091
2019-02-07T02:19:03.311Z,-5.275879
2019-02-07T02:20:12.866Z,-5.275879
2019-02-07T02:21:22.433Z,-5.265808
2019-02-07T02:22:31.920Z,-5.265808
2019-02-07T02:23:41.477Z,-5.235596
2019-02-07T02:24:51.033Z,-5.215454
2019-02-07T02:26:00.591Z,-5.205383
2019-02-07T02:27:10.167Z,-5.215454
2019-02-07T02:28:19.781Z,-5.215454
2019-02-07T02:29:29.246Z,-5.205383
2019-02-07T02:30:38.803Z,-5.205383
2019-02-07T02:31:48.324Z,-5.205383
2019-02-07T02:32:57.852Z,-5.215454
2019-02-07T02:34:07.400Z,-5.215454
2019-02-07T02:35:17.890Z,-5.205383
2019-02-07T02:36:27.440Z,-5.205383
2019-02-07T02:37:36.969Z,-5.205383
2019-02-07T02:38:46.538Z,-5.205383
2019-02-07T02:39:56.188Z,-5.205383
2019-02-07T02:41:05.645Z,-5.245667
2019-02-07T02:42:15.196Z,-5.306091
2019-02-07T02:43:24.731Z,-5.41687
2019-02-07T02:44:34.308Z,-5.426941
2019-02-07T02:45:43.897Z,-5.447083
2019-02-07T02:46:53.375Z,-5.41687
2019-02-07T02:48:02.947Z,-5.396729
2019-02-07T02:49:12.528Z,-5.356445
2019-02-07T02:50:22.097Z,-5.356445
2019-02-07T02:51:31.724Z,-5.346375
2019-02-07T02:52:41.321Z,-5.356445
2019-02-07T02:53:50.803Z,-5.346375
2019-02-07T02:55:00.565Z,-5.356445
2019-02-07T02:56:09.917Z,-5.356445
2019-02-07T02:57:19.477Z,-5.356445
2019-02-07T02:58:29.058Z,-5.356445
2019-02-07T02:59:38.613Z,-5.376587
2019-02-07T03:00:48.235Z,-5.386658
2019-02-07T03:01:57.743Z,-5.41687
2019-02-07T03:03:07.385Z,-5.426941
2019-02-07T03:04:16.990Z,-5.447083
2019-02-07T03:05:26.565Z,-5.507507
2019-02-07T03:06:36.166Z,-5.557861
2019-02-07T03:07:45.638Z,-5.608215
2019-02-07T03:08:55.164Z,-5.628357
2019-02-07T03:10:04.705Z,-5.638428
2019-02-07T03:11:14.241Z,-5.66864
2019-02-07T03:12:23.824Z,-5.66864
2019-02-07T03:13:33.350Z,-5.678711
2019-02-07T03:14:42.933Z,-5.708923
2019-02-07T03:15:52.503Z,-5.708923
2019-02-07T03:17:02.069Z,-5.678711
2019-02-07T03:18:11.600Z,-5.678711
2019-02-07T03:19:21.218Z,-5.66864
2019-02-07T03:20:30.736Z,-5.678711
2019-02-07T03:21:40.226Z,-5.678711
2019-02-07T03:22:49.789Z,-5.678711
2019-02-07T03:23:59.378Z,-5.678711
2019-02-07T03:25:08.967Z,-5.708923
2019-02-07T03:26:18.587Z,-5.678711
2019-02-07T03:27:28.054Z,-5.708923
2019-02-07T03:28:37.616Z,-5.708923
2019-02-07T03:29:47.151Z,-5.708923
2019-02-07T03:30:56.697Z,-5.718994
2019-02-07T03:32:06.286Z,-5.759277
2019-02-07T03:33:15.874Z,-5.779419
2019-02-07T03:34:25.372Z,-5.779419
2019-02-07T03:35:34.949Z,-5.759277
2019-02-07T03:36:44.522Z,-5.759277
2019-02-07T03:37:54.093Z,-5.759277
2019-02-07T03:39:03.646Z,-5.749207
2019-02-07T03:40:13.232Z,-5.739136
2019-02-07T03:41:22.775Z,-5.759277
2019-02-07T03:42:32.322Z,-5.78949
2019-02-07T03:43:41.845Z,-5.779419
2019-02-07T03:44:51.425Z,-5.779419
2019-02-07T03:46:03.042Z,-5.759277
2019-02-07T03:47:10.538Z,-5.749207
2019-02-07T03:48:20.146Z,-5.749207
2019-02-07T03:49:29.684Z,-5.708923
2019-02-07T03:50:40.220Z,-5.718994
2019-02-07T03:51:49.763Z,-5.718994
2019-02-07T03:52:59.405Z,-5.678711
2019-02-07T03:54:08.946Z,-5.66864
2019-02-07T03:55:18.415Z,-5.638428
2019-02-07T03:56:27.960Z,-5.638428
2019-02-07T03:57:37.518Z,-5.598145
2019-02-07T03:58:47.167Z,-5.578003
2019-02-07T03:59:56.642Z,-5.608215
2019-02-07T04:01:06.169Z,-5.578003
2019-02-07T04:02:15.728Z,-5.598145
2019-02-07T04:03:25.321Z,-5.578003
2019-02-07T04:04:34.882Z,-5.567932
2019-02-07T04:05:44.421Z,-5.557861
2019-02-07T04:06:53.920Z,-5.53772
2019-02-07T04:08:03.499Z,-5.527649
2019-02-07T04:09:13.131Z,-5.507507
2019-02-07T04:10:22.667Z,-5.487366
2019-02-07T04:11:32.273Z,-5.467224
2019-02-07T04:12:41.763Z,-5.467224
2019-02-07T04:13:51.319Z,-5.487366
2019-02-07T04:15:00.875Z,-5.487366
2019-02-07T04:16:14.923Z,-5.527649
2019-02-07T04:17:20.066Z,-5.527649
2019-02-07T04:18:29.608Z,-5.557861
2019-02-07T04:19:39.161Z,-5.527649
2019-02-07T04:20:48.713Z,-5.557861
2019-02-07T04:21:58.247Z,-5.578003
2019-02-07T04:23:07.904Z,-5.578003
2019-02-07T04:24:18.467Z,-5.598145
2019-02-07T04:25:27.006Z,-5.608215
2019-02-07T04:26:36.535Z,-5.608215
2019-02-07T04:27:46.092Z,-5.628357
2019-02-07T04:28:55.639Z,-5.628357
2019-02-07T04:30:05.177Z,-5.658569
2019-02-07T04:31:14.683Z,-5.678711
2019-02-07T04:32:24.287Z,-5.678711
2019-02-07T04:33:33.799Z,-5.708923
2019-02-07T04:34:43.410Z,-5.678711
2019-02-07T04:35:52.914Z,-5.678711
2019-02-07T04:37:02.453Z,-5.66864
2019-02-07T04:38:11.973Z,-5.66864
2019-02-07T04:39:21.567Z,-5.66864
2019-02-07T04:40:31.104Z,-5.66864
2019-02-07T04:41:40.649Z,-5.66864
2019-02-07T04:42:50.195Z,-5.658569
2019-02-07T04:43:59.729Z,-5.658569
2019-02-07T04:45:09.271Z,-5.658569
2019-02-07T04:46:26.541Z,-5.658569
2019-02-07T04:47:28.379Z,-5.658569
2019-02-07T04:48:37.982Z,-5.658569
2019-02-07T04:49:47.546Z,-5.638428
2019-02-07T04:50:57.091Z,-5.66864
2019-02-07T04:52:06.609Z,-5.658569
2019-02-07T04:53:16.197Z,-5.678711
2019-02-07T04:54:25.711Z,-5.66864
2019-02-07T04:55:35.244Z,-5.678711
2019-02-07T04:56:44.819Z,-5.708923
2019-02-07T04:57:54.409Z,-5.678711
2019-02-07T04:59:03.959Z,-5.678711
2019-02-07T05:00:13.545Z,-5.678711
2019-02-07T05:01:23.084Z,-5.658569
2019-02-07T05:02:32.609Z,-5.658569
2019-02-07T05:03:42.152Z,-5.628357
2019-02-07T05:04:51.718Z,-5.628357
2019-02-07T05:06:01.275Z,-5.608215
2019-02-07T05:07:10.872Z,-5.638428
2019-02-07T05:08:20.500Z,-5.708923
2019-02-07T05:09:30.659Z,-5.718994
2019-02-07T05:10:39.774Z,-5.739136
2019-02-07T05:11:49.366Z,-5.759277
2019-02-07T05:12:58.899Z,-5.78949
2019-02-07T05:14:08.399Z,-5.819702
2019-02-07T05:15:17.935Z,-5.859985
2019-02-07T05:16:38.811Z,-5.930481
2019-02-07T05:17:37.931Z,-5.990906
2019-02-07T05:18:47.460Z,-6.051331
2019-02-07T05:19:56.991Z,-6.051331
2019-02-07T05:21:06.498Z,-6.000977
2019-02-07T05:22:16.011Z,-6.021118
2019-02-07T05:23:25.532Z,-6.051331
2019-02-07T05:24:35.072Z,-6.101685
2019-02-07T05:25:44.581Z,-6.131897
2019-02-07T05:26:55.111Z,-6.17218
2019-02-07T05:28:04.615Z,-6.262817
2019-02-07T05:29:14.138Z,-6.29303
2019-02-07T05:30:23.702Z,-6.323242
2019-02-07T05:31:33.208Z,-6.363525
2019-02-07T05:32:42.804Z,-6.413879
2019-02-07T05:33:52.320Z,-6.42395
2019-02-07T05:35:01.854Z,-6.474304
2019-02-07T05:36:11.389Z,-6.504517
2019-02-07T05:37:20.925Z,-6.575012
2019-02-07T05:38:30.438Z,-6.595154
2019-02-07T05:39:39.983Z,-6.655579
2019-02-07T05:40:50.527Z,-6.67572
2019-02-07T05:42:00.176Z,-6.705933
2019-02-07T05:43:10.140Z,-6.736145
2019-02-07T05:44:19.688Z,-6.736145
2019-02-07T05:45:29.203Z,-6.736145
2019-02-07T05:46:38.724Z,-6.746216
2019-02-07T05:47:49.204Z,-6.716003
2019-02-07T05:48:58.794Z,-6.746216
2019-02-07T05:50:08.396Z,-6.736145
2019-02-07T05:51:17.927Z,-6.746216
2019-02-07T05:52:27.456Z,-6.756287
2019-02-07T05:53:36.998Z,-6.776428
2019-02-07T05:54:46.539Z,-6.806641
2019-02-07T05:55:56.060Z,-6.826782
2019-02-07T05:57:05.594Z,-6.836853
2019-02-07T05:58:15.155Z,-6.867065
2019-02-07T05:59:24.674Z,-6.897278
2019-02-07T06:00:34.199Z,-6.917419
2019-02-07T06:01:43.747Z,-6.937561
2019-02-07T06:02:53.278Z,-6.997986
2019-02-07T06:04:02.811Z,-7.068481
2019-02-07T06:05:12.328Z,-7.108765
2019-02-07T06:06:21.870Z,-7.128906
2019-02-07T06:07:31.433Z,-7.138977
2019-02-07T06:08:40.984Z,-7.169189
2019-02-07T06:09:50.511Z,-7.17926
2019-02-07T06:11:00.033Z,-7.169189
2019-02-07T06:12:09.554Z,-7.209473
2019-02-07T06:13:19.586Z,-7.249756
2019-02-07T06:14:29.108Z,-7.259827
2019-02-07T06:15:38.628Z,-7.249756
2019-02-07T06:16:48.200Z,-7.279968
2019-02-07T06:17:58.684Z,-7.290039
2019-02-07T06:19:08.192Z,-7.350464
2019-02-07T06:20:17.719Z,-7.360535
2019-02-07T06:21:27.243Z,-7.350464
2019-02-07T06:22:36.759Z,-7.350464
2019-02-07T06:23:46.357Z,-7.310181
2019-02-07T06:24:55.863Z,-7.290039
2019-02-07T06:26:05.415Z,-7.259827
2019-02-07T06:27:14.930Z,-7.209473
2019-02-07T06:28:24.462Z,-7.169189
2019-02-07T06:29:33.990Z,-7.149048
2019-02-07T06:30:43.524Z,-7.149048
2019-02-07T06:31:53.048Z,-7.149048
2019-02-07T06:33:02.567Z,-7.149048
2019-02-07T06:34:12.067Z,-7.149048
2019-02-07T06:35:22.565Z,-7.17926
2019-02-07T06:36:32.125Z,-7.17926
2019-02-07T06:37:41.654Z,-7.169189
2019-02-07T06:38:51.174Z,-7.17926
2019-02-07T06:40:00.699Z,-7.17926
2019-02-07T06:41:10.239Z,-7.209473
2019-02-07T06:42:19.767Z,-7.229614
2019-02-07T06:43:29.370Z,-7.229614
2019-02-07T06:44:38.807Z,-7.219543
2019-02-07T06:45:48.356Z,-7.229614
2019-02-07T06:46:57.901Z,-7.229614
2019-02-07T06:48:08.408Z,-7.229614
2019-02-07T06:49:17.921Z,-7.219543
2019-02-07T06:50:27.438Z,-7.209473
2019-02-07T06:51:36.970Z,-7.17926
2019-02-07T06:52:46.492Z,-7.169189
2019-02-07T06:53:56.021Z,-7.138977
2019-02-07T06:55:05.549Z,-7.098694
2019-02-07T06:56:15.089Z,-7.098694
2019-02-07T06:57:24.604Z,-7.068481
2019-02-07T06:58:34.117Z,-7.038269
2019-02-07T06:59:43.645Z,-7.038269
2019-02-07T07:00:53.181Z,-7.038269
2019-02-07T07:02:02.759Z,-6.987915
2019-02-07T07:03:12.387Z,-6.957703
2019-02-07T07:04:21.956Z,-6.92749
2019-02-07T07:05:31.558Z,-6.887207
2019-02-07T07:06:41.135Z,-6.867065
2019-02-07T07:07:50.749Z,-6.806641
2019-02-07T07:09:00.318Z,-6.776428
2019-02-07T07:10:09.877Z,-6.736145
2019-02-07T07:11:19.491Z,-6.705933
2019-02-07T07:12:29.047Z,-6.67572
2019-02-07T07:13:38.563Z,-6.655579
2019-02-07T07:14:48.096Z,-6.595154
2019-02-07T07:15:57.610Z,-6.564941
2019-02-07T07:17:07.214Z,-6.524658
2019-02-07T07:18:17.717Z,-6.42395
2019-02-07T07:19:27.234Z,-6.363525
2019-02-07T07:20:37.755Z,-6.242676
2019-02-07T07:21:47.307Z,-6.17218
2019-02-07T07:22:56.822Z,-6.071472
2019-02-07T07:24:06.347Z,-5.990906
2019-02-07T07:25:15.893Z,-5.92041
2019-02-07T07:26:25.493Z,-5.849915
2019-02-07T07:27:35.050Z,-5.759277
2019-02-07T07:28:44.581Z,-5.739136
2019-02-07T07:29:54.096Z,-5.658569
2019-02-07T07:31:03.632Z,-5.567932
2019-02-07T07:32:13.199Z,-5.457153
2019-02-07T07:33:22.711Z,-5.396729
2019-02-07T07:34:32.235Z,-5.356445
2019-02-07T07:35:41.790Z,-5.326233
2019-02-07T07:36:51.331Z,-5.235596
2019-02-07T07:38:00.833Z,-5.134888
2019-02-07T07:39:10.337Z,-5.03418
2019-02-07T07:40:19.858Z,-4.893188
2019-02-07T07:41:29.359Z,-4.812622
2019-02-07T07:42:38.952Z,-4.732056
2019-02-07T07:43:48.469Z,-4.641418
2019-02-07T07:44:57.994Z,-4.601135
2019-02-07T07:46:07.526Z,-4.500427
2019-02-07T07:47:17.086Z,-4.429932
2019-02-07T07:48:27.591Z,-4.389648
2019-02-07T07:49:37.119Z,-4.299011
2019-02-07T07:50:46.672Z,-4.208374
2019-02-07T07:51:56.221Z,-4.137878
2019-02-07T07:53:05.756Z,-4.117737
2019-02-07T07:54:15.261Z,-4.0271
2019-02-07T07:55:24.826Z,-4.017029
2019-02-07T07:56:35.343Z,-3.976746
2019-02-07T07:57:44.926Z,-3.916321
2019-02-07T07:58:54.402Z,-3.886108
2019-02-07T08:00:03.920Z,-3.825684
2019-02-07T08:01:13.452Z,-3.735046
2019-02-07T08:02:23.029Z,-3.664551
2019-02-07T08:03:32.557Z,-3.553772
2019-02-07T08:04:42.091Z,-3.553772
2019-02-07T08:05:53.373Z,-3.483276
2019-02-07T08:07:01.128Z,-3.372498
2019-02-07T08:08:10.647Z,-3.251648
2019-02-07T08:09:20.182Z,-3.15094
2019-02-07T08:10:29.707Z,-3.040161
2019-02-07T08:11:39.449Z,-2.969666
2019-02-07T08:12:48.961Z,-2.919312
2019-02-07T08:13:58.476Z,-2.77832
2019-02-07T08:15:08.020Z,-2.727966
2019-02-07T08:16:17.552Z,-2.597046
2019-02-07T08:17:27.349Z,-2.576904
2019-02-07T08:18:37.860Z,-2.496338
2019-02-07T08:19:47.397Z,-2.39563
2019-02-07T08:20:56.949Z,-2.345276
2019-02-07T08:22:06.493Z,-2.365417
2019-02-07T08:23:16.010Z,-2.284851
2019-02-07T08:24:25.522Z,-2.153931
2019-02-07T08:25:35.041Z,-2.153931
2019-02-07T08:26:44.569Z,-2.164001
2019-02-07T08:27:54.120Z,-2.043152
2019-02-07T08:29:03.654Z,-1.922302
2019-02-07T08:30:13.160Z,-1.77124
2019-02-07T08:31:22.699Z,-1.610107
2019-02-07T08:32:32.241Z,-1.428833
2019-02-07T08:33:41.768Z,-1.378479
2019-02-07T08:34:51.282Z,-1.297913
2019-02-07T08:36:00.801Z,-1.217346
2019-02-07T08:37:10.341Z,-1.187134
2019-02-07T08:38:19.855Z,-1.106567
2019-02-07T08:39:29.364Z,-0.935364
2019-02-07T08:40:38.914Z,-0.824585
2019-02-07T08:41:48.448Z,-0.703735
2019-02-07T08:42:57.998Z,-0.522461
2019-02-07T08:44:07.509Z,-0.38147
2019-02-07T08:45:17.023Z,-0.250549
2019-02-07T08:46:26.540Z,-0.180054
2019-02-07T08:47:36.096Z,-0.139771
2019-02-07T08:48:45.616Z,-0.018921
2019-02-07T08:49:55.123Z,0.051575
2019-02-07T08:51:04.647Z,0.232849
2019-02-07T08:52:14.197Z,0.393982
2019-02-07T08:53:23.757Z,0.575256
2019-02-07T08:54:33.229Z,0.776672
2019-02-07T08:55:42.744Z,0.978088
2019-02-07T08:56:52.261Z,0.947876
2019-02-07T08:58:01.821Z,1.098938
2019-02-07T08:59:11.338Z,1.280212
2019-02-07T09:00:20.863Z,1.421204
2019-02-07T09:01:30.385Z,1.62262
2019-02-07T09:02:39.941Z,1.733398
2019-02-07T09:03:50.448Z,1.914673
2019-02-07T09:04:59.977Z,2.035522
2019-02-07T09:06:09.508Z,2.236938
2019-02-07T09:07:19.077Z,2.37793
2019-02-07T09:08:28.586Z,2.488708
2019-02-07T09:09:38.099Z,2.800903
2019-02-07T09:10:47.629Z,2.831116
2019-02-07T09:11:57.263Z,2.931824
2019-02-07T09:13:06.693Z,2.951965
2019-02-07T09:14:16.202Z,3.103027
2019-02-07T09:15:25.748Z,3.13324
2019-02-07T09:16:35.279Z,2.861328
2019-02-07T09:17:44.882Z,2.871399
2019-02-07T09:18:54.415Z,2.770691
2019-02-07T09:20:03.930Z,2.740479
2019-02-07T09:21:13.467Z,2.710266
2019-02-07T09:22:23.881Z,2.891541
2019-02-07T09:23:32.533Z,2.770691
2019-02-07T09:24:42.059Z,2.871399
2019-02-07T09:25:51.571Z,2.982178
2019-02-07T09:27:01.083Z,3.163452
2019-02-07T09:28:10.627Z,3.324585
2019-02-07T09:29:20.168Z,3.475647
2019-02-07T09:30:29.681Z,3.687134
2019-02-07T09:31:39.209Z,3.797913
2019-02-07T09:32:48.755Z,3.838196
2019-02-07T09:33:58.290Z,3.838196
2019-02-07T09:35:07.796Z,3.858337
2019-02-07T09:36:17.318Z,3.838196
2019-02-07T09:37:26.850Z,3.828125
2019-02-07T09:38:36.399Z,3.858337
2019-02-07T09:39:45.930Z,3.505859
2019-02-07T09:40:55.448Z,3.01239
2019-02-07T09:42:04.970Z,3.213806
2019-02-07T09:43:14.499Z,3.314514
2019-02-07T09:44:25.032Z,3.374939
2019-02-07T09:45:34.545Z,3.556213
2019-02-07T09:46:44.099Z,3.656921
2019-02-07T09:47:53.627Z,3.797913
2019-02-07T09:49:03.155Z,3.878479
2019-02-07T09:50:12.686Z,3.878479
2019-02-07T09:51:22.199Z,3.868408
2019-02-07T09:52:31.719Z,3.807983
2019-02-07T09:53:41.257Z,3.777771
2019-02-07T09:54:50.849Z,3.858337
2019-02-07T09:56:00.409Z,3.868408
2019-02-07T09:57:09.949Z,4.120178
2019-02-07T09:58:19.449Z,4.220886
2019-02-07T09:59:28.965Z,4.351807
2019-02-07T10:00:38.494Z,4.301453
2019-02-07T10:01:48.016Z,4.321594
2019-02-07T10:02:57.553Z,4.341736
2019-02-07T10:04:07.087Z,4.351807
2019-02-07T10:05:16.631Z,4.402161
2019-02-07T10:06:26.242Z,4.482727
2019-02-07T10:07:35.871Z,4.633789
2019-02-07T10:08:45.480Z,4.784851
2019-02-07T10:09:55.167Z,4.815063
2019-02-07T10:11:05.795Z,4.835205
2019-02-07T10:12:15.387Z,4.77478
2019-02-07T10:13:24.976Z,4.563293
2019-02-07T10:14:34.569Z,4.684143
2019-02-07T10:15:44.200Z,4.684143
2019-02-07T10:16:53.834Z,4.684143
2019-02-07T10:18:03.488Z,4.664001
2019-02-07T10:19:13.038Z,4.533081
2019-02-07T10:20:22.657Z,4.583435
2019-02-07T10:21:32.289Z,4.502869
2019-02-07T10:22:41.891Z,4.160461
2019-02-07T10:23:51.483Z,4.200745
2019-02-07T10:25:01.080Z,4.170532
2019-02-07T10:26:10.726Z,3.737488
2019-02-07T10:27:20.306Z,3.737488
2019-02-07T10:28:29.854Z,3.797913
2019-02-07T10:29:39.479Z,3.495789
2019-02-07T10:30:49.156Z,3.586426
2019-02-07T10:31:58.746Z,3.445435
2019-02-07T10:33:08.261Z,3.475647
2019-02-07T10:34:18.815Z,3.344727
2019-02-07T10:35:27.288Z,3.002319
2019-02-07T10:36:36.807Z,3.002319
2019-02-07T10:37:46.326Z,2.982178
2019-02-07T10:38:55.853Z,3.082886
2019-02-07T10:40:05.382Z,3.344727
2019-02-07T10:41:14.918Z,3.616638
2019-02-07T10:42:24.443Z,3.364868
2019-02-07T10:43:33.963Z,3.616638
2019-02-07T10:44:43.485Z,3.7677
2019-02-07T10:45:53.034Z,3.918762
2019-02-07T10:47:02.553Z,4.009399
2019-02-07T10:48:12.079Z,4.170532
2019-02-07T10:49:21.608Z,4.241028
2019-02-07T10:50:31.146Z,4.311523
2019-02-07T10:51:40.661Z,4.261169
2019-02-07T10:52:50.197Z,4.371948
2019-02-07T10:53:59.720Z,4.301453
2019-02-07T10:55:09.233Z,4.492798
2019-02-07T10:56:18.768Z,4.664001
2019-02-07T10:57:28.300Z,4.744568
2019-02-07T10:58:37.815Z,4.804993
2019-02-07T10:59:47.349Z,4.935913
2019-02-07T11:00:56.941Z,5.076904
2019-02-07T11:02:06.461Z,5.107117
2019-02-07T11:03:15.991Z,5.167542
2019-02-07T11:04:25.501Z,5.107117
2019-02-07T11:05:35.058Z,4.956055
2019-02-07T11:06:44.584Z,4.956055
2019-02-07T11:07:54.101Z,4.956055
2019-02-07T11:09:03.627Z,4.986267
2019-02-07T11:10:13.155Z,5.076904
2019-02-07T11:11:22.691Z,5.107117
2019-02-07T11:12:32.199Z,5.036621
2019-02-07T11:13:41.745Z,4.855347
2019-02-07T11:14:51.316Z,5.036621
2019-02-07T11:16:00.850Z,5.207825
2019-02-07T11:17:11.359Z,5.459595
2019-02-07T11:18:20.892Z,5.570374
2019-02-07T11:19:30.424Z,5.791931
2019-02-07T11:20:39.982Z,5.822144
2019-02-07T11:21:49.524Z,5.912781
2019-02-07T11:22:59.054Z,6.013489
2019-02-07T11:24:08.589Z,6.114197
2019-02-07T11:25:18.093Z,6.124268
2019-02-07T11:26:27.635Z,6.174622
2019-02-07T11:27:37.163Z,6.073914
2019-02-07T11:28:46.666Z,6.053772
2019-02-07T11:29:56.172Z,6.083984
2019-02-07T11:31:05.712Z,6.144409
2019-02-07T11:32:15.256Z,6.043701
2019-02-07T11:33:24.790Z,6.02356
2019-02-07T11:34:34.316Z,6.053772
2019-02-07T11:35:43.828Z,6.083984
2019-02-07T11:36:54.252Z,6.124268
2019-02-07T11:38:02.889Z,6.144409
2019-02-07T11:39:12.403Z,6.164551
2019-02-07T11:40:21.943Z,6.194763
2019-02-07T11:41:31.483Z,6.224976
2019-02-07T11:42:41.000Z,6.235046
2019-02-07T11:43:50.533Z,6.204834
2019-02-07T11:45:00.229Z,6.295471
2019-02-07T11:46:09.581Z,6.345825
2019-02-07T11:47:19.098Z,6.476746
2019-02-07T11:48:28.624Z,6.587524
2019-02-07T11:49:38.135Z,6.768799
2019-02-07T11:50:47.663Z,6.869507
2019-02-07T11:51:57.209Z,6.960144
2019-02-07T11:53:06.732Z,7.060852
2019-02-07T11:54:16.295Z,7.232056
2019-02-07T11:55:25.835Z,7.322693
2019-02-07T11:56:35.400Z,7.473755
2019-02-07T11:57:44.921Z,7.514038
2019-02-07T11:58:54.458Z,7.614746
2019-02-07T12:00:03.987Z,7.695312
2019-02-07T12:01:13.532Z,7.725525
2019-02-07T12:02:23.059Z,7.745667
2019-02-07T12:03:32.580Z,7.715454
2019-02-07T12:04:42.102Z,7.78595
2019-02-07T12:05:51.631Z,7.796021
2019-02-07T12:07:01.166Z,7.796021
2019-02-07T12:08:10.692Z,7.826233
2019-02-07T12:09:20.228Z,7.816162
2019-02-07T12:10:29.780Z,7.765808
2019-02-07T12:11:39.474Z,7.78595
2019-02-07T12:12:49.946Z,7.826233
2019-02-07T12:13:59.469Z,7.896729
2019-02-07T12:15:09.008Z,7.926941
2019-02-07T12:16:18.540Z,7.967224
2019-02-07T12:17:28.087Z,7.997437
2019-02-07T12:18:37.597Z,8.047791
2019-02-07T12:19:47.131Z,8.078003
2019-02-07T12:20:56.667Z,8.078003
2019-02-07T12:22:06.208Z,8.128357
2019-02-07T12:23:15.742Z,8.158569
2019-02-07T12:24:25.274Z,8.118286
2019-02-07T12:25:34.805Z,8.078003
2019-02-07T12:26:44.373Z,8.027649
2019-02-07T12:27:53.958Z,8.057861
2019-02-07T12:29:03.477Z,8.027649
2019-02-07T12:30:13.004Z,8.047791
2019-02-07T12:31:22.544Z,8.057861
2019-02-07T12:32:32.105Z,8.027649
2019-02-07T12:33:41.617Z,7.997437
2019-02-07T12:34:51.145Z,7.977295
2019-02-07T12:36:00.658Z,8.007507
2019-02-07T12:37:10.193Z,7.977295
2019-02-07T12:38:19.719Z,7.977295
2019-02-07T12:39:29.255Z,7.977295
2019-02-07T12:40:38.794Z,8.007507
2019-02-07T12:41:48.355Z,7.997437
2019-02-07T12:42:57.884Z,7.967224
2019-02-07T12:44:07.411Z,7.876587
2019-02-07T12:45:16.942Z,7.896729
2019-02-07T12:46:26.490Z,7.896729
2019-02-07T12:47:36.055Z,7.876587
2019-02-07T12:48:45.564Z,7.896729
2019-02-07T12:49:55.096Z,7.937012
2019-02-07T12:51:04.629Z,8.007507
2019-02-07T12:52:14.188Z,8.047791
2019-02-07T12:53:23.725Z,8.078003
2019-02-07T12:54:33.256Z,8.088074
2019-02-07T12:55:51.857Z,8.098145
2019-02-07T12:56:53.313Z,8.098145
2019-02-07T12:58:02.849Z,8.098145
2019-02-07T12:59:12.395Z,8.128357
2019-02-07T13:00:21.926Z,8.118286
2019-02-07T13:01:31.448Z,8.118286
2019-02-07T13:02:41.018Z,8.088074
2019-02-07T13:03:50.582Z,8.098145
2019-02-07T13:05:00.438Z,8.057861
2019-02-07T13:06:09.661Z,8.027649
2019-02-07T13:07:19.210Z,7.977295
2019-02-07T13:08:28.765Z,7.967224
2019-02-07T13:09:38.294Z,7.896729
2019-02-07T13:10:47.841Z,7.876587
2019-02-07T13:11:57.389Z,7.796021
2019-02-07T13:13:06.964Z,7.78595
2019-02-07T13:14:16.476Z,7.765808
2019-02-07T13:15:26.015Z,7.745667
2019-02-07T13:16:35.555Z,7.6651
2019-02-07T13:17:45.125Z,7.655029
2019-02-07T13:18:54.639Z,7.614746
2019-02-07T13:20:04.222Z,7.574463
2019-02-07T13:21:13.849Z,7.584534
2019-02-07T13:22:23.384Z,7.574463
2019-02-07T13:23:33.013Z,7.54425
2019-02-07T13:24:42.594Z,7.53418